createdAt,value
2019-04-03T00:00:10.569Z,32.66
2019-04-03T00:02:17.886Z,32.71
2019-04-03T00:04:24.625Z,32.90
2019-04-03T00:06:31.449Z,32.63
2019-04-03T00:08:38.211Z,32.80
2019-04-03T00:10:45.939Z,32.83
2019-04-03T00:12:52.848Z,32.70
2019-04-03T00:14:59.681Z,32.78
2019-04-03T00:17:06.411Z,32.50
2019-04-03T00:19:13.153Z,32.60
2019-04-03T00:21:20.321Z,32.77
2019-04-03T00:23:28.234Z,32.71
2019-04-03T00:25:34.898Z,32.73
2019-04-03T00:27:41.680Z,32.64
2019-04-03T00:29:48.430Z,32.87
2019-04-03T00:31:55.173Z,32.89
2019-04-03T00:34:01.955Z,32.87
2019-04-03T00:36:08.890Z,33.06
2019-04-03T00:38:15.678Z,33.14
2019-04-03T00:40:24.697Z,32.86
2019-04-03T00:42:31.587Z,32.86
2019-04-03T00:44:39.524Z,33.06
2019-04-03T00:46:46.296Z,32.85
2019-04-03T00:48:55.399Z,32.84
2019-04-03T00:51:02.808Z,32.84
2019-04-03T00:53:09.600Z,32.92
2019-04-03T00:55:16.368Z,32.85
2019-04-03T00:57:23.143Z,32.89
2019-04-03T00:59:29.913Z,32.84
2019-04-03T01:01:36.658Z,32.99
2019-04-03T01:03:43.674Z,32.74
2019-04-03T01:05:50.545Z,32.78
2019-04-03T01:07:59.186Z,32.90
2019-04-03T01:10:06.967Z,32.98
2019-04-03T01:12:13.782Z,33.13
2019-04-03T01:14:20.546Z,33.24
2019-04-03T01:16:27.469Z,33.24
2019-04-03T01:18:35.124Z,33.08
2019-04-03T01:20:42.326Z,33.00
2019-04-03T01:22:49.443Z,33.02
2019-04-03T01:24:56.276Z,33.07
2019-04-03T01:27:03.061Z,32.99
2019-04-03T01:29:10.642Z,33.08
2019-04-03T01:31:18.281Z,32.98
2019-04-03T01:33:25.035Z,33.24
2019-04-03T01:35:31.874Z,32.98
2019-04-03T01:37:38.670Z,33.11
2019-04-03T01:39:45.554Z,33.10
2019-04-03T01:41:52.354Z,33.06
2019-04-03T01:43:59.092Z,32.89
2019-04-03T01:46:05.803Z,32.93
2019-04-03T01:48:12.674Z,33.10
2019-04-03T01:50:19.377Z,33.09
2019-04-03T01:52:26.142Z,33.09
2019-04-03T01:54:33.730Z,32.93
2019-04-03T01:56:40.845Z,32.81
2019-04-03T01:58:47.771Z,32.81
2019-04-03T02:00:54.556Z,32.80
2019-04-03T02:03:02.125Z,32.82
2019-04-03T02:05:12.435Z,32.92
2019-04-03T02:07:19.110Z,32.91
2019-04-03T02:09:26.063Z,32.83
2019-04-03T02:11:32.809Z,32.82
2019-04-03T02:13:39.649Z,32.87
2019-04-03T02:15:46.363Z,32.79
2019-04-03T02:17:55.121Z,33.02
2019-04-03T02:20:01.556Z,32.91
2019-04-03T02:22:08.355Z,32.85
2019-04-03T02:24:15.184Z,32.98
2019-04-03T02:26:22.000Z,33.17
2019-04-03T02:28:34.189Z,33.08
2019-04-03T02:30:42.563Z,33.11
2019-04-03T02:32:48.776Z,33.30
2019-04-03T02:34:56.342Z,33.49
2019-04-03T02:37:03.389Z,33.33
2019-04-03T02:39:10.111Z,33.49
2019-04-03T02:41:17.723Z,33.54
2019-04-03T02:43:24.474Z,33.57
2019-04-03T02:45:31.216Z,33.81
2019-04-03T02:47:37.974Z,33.53
2019-04-03T02:49:45.084Z,33.66
2019-04-03T02:51:53.365Z,33.60
2019-04-03T02:54:02.267Z,33.51
2019-04-03T02:56:11.637Z,33.51
2019-04-03T02:58:21.455Z,33.63
2019-04-03T03:00:26.017Z,33.58
2019-04-03T03:02:32.823Z,33.69
2019-04-03T03:04:40.868Z,33.86
2019-04-03T03:06:48.180Z,33.90
2019-04-03T03:08:55.334Z,33.77
2019-04-03T03:11:04.495Z,33.91
2019-04-03T03:13:11.656Z,33.75
2019-04-03T03:15:18.817Z,33.79
2019-04-03T03:17:25.868Z,33.73
2019-04-03T03:19:33.978Z,33.76
2019-04-03T03:21:43.881Z,34.06
2019-04-03T03:23:50.590Z,33.91
2019-04-03T03:25:58.976Z,34.25
2019-04-03T03:28:06.144Z,34.03
2019-04-03T03:30:32.986Z,34.09
2019-04-03T03:32:31.413Z,34.12
2019-04-03T03:34:47.623Z,34.06
2019-04-03T03:36:40.376Z,34.08
2019-04-03T03:38:48.912Z,34.22
2019-04-03T03:40:55.989Z,34.28
2019-04-03T03:43:05.827Z,34.24
2019-04-03T03:45:13.367Z,34.41
2019-04-03T03:47:20.689Z,34.46
2019-04-03T03:49:31.116Z,34.38
2019-04-03T03:51:38.491Z,34.49
2019-04-03T03:53:47.576Z,34.33
2019-04-03T03:55:58.697Z,34.55
2019-04-03T03:58:04.286Z,34.53
2019-04-03T04:00:11.327Z,34.49
2019-04-03T04:02:18.344Z,34.66
2019-04-03T04:04:25.184Z,34.63
2019-04-03T04:06:35.389Z,34.79
2019-04-03T04:08:44.626Z,34.78
2019-04-03T04:10:49.640Z,34.74
2019-04-03T04:12:57.785Z,34.68
2019-04-03T04:15:05.724Z,34.71
2019-04-03T04:17:16.903Z,34.85
2019-04-03T04:19:23.975Z,34.79
2019-04-03T04:21:32.570Z,35.05
2019-04-03T04:23:39.714Z,35.11
2019-04-03T04:25:46.989Z,35.03
2019-04-03T04:27:53.725Z,35.08
2019-04-03T04:30:00.629Z,34.97
2019-04-03T04:32:07.312Z,35.06
2019-04-03T04:34:14.102Z,34.96
2019-04-03T04:36:23.602Z,34.88
2019-04-03T04:38:29.083Z,34.91
2019-04-03T04:40:38.594Z,35.00
2019-04-03T04:42:45.479Z,34.99
2019-04-03T04:44:54.126Z,34.66
2019-04-03T04:47:01.517Z,34.58
2019-04-03T04:49:08.496Z,34.66
2019-04-03T04:51:15.272Z,34.46
2019-04-03T04:53:22.204Z,34.48
2019-04-03T04:55:31.551Z,34.58
2019-04-03T04:57:41.003Z,34.30
2019-04-03T04:59:47.931Z,34.30
2019-04-03T05:01:54.656Z,34.07
2019-04-03T05:04:01.615Z,34.11
2019-04-03T05:06:08.370Z,33.79
2019-04-03T05:08:15.122Z,33.67
2019-04-03T05:10:22.079Z,33.26
2019-04-03T05:12:28.849Z,31.98
2019-04-03T05:14:35.936Z,30.06
2019-04-03T05:16:42.739Z,28.25
2019-04-03T05:18:49.479Z,27.55
2019-04-03T05:20:56.315Z,27.30
2019-04-03T05:23:03.273Z,26.63
2019-04-03T05:25:10.073Z,26.41
2019-04-03T05:27:16.869Z,25.61
2019-04-03T05:29:24.741Z,25.62
2019-04-03T05:31:31.497Z,24.99
2019-04-03T05:33:41.148Z,24.62
2019-04-03T05:35:46.962Z,23.24
2019-04-03T05:37:53.798Z,23.36
2019-04-03T05:40:00.716Z,23.83
2019-04-03T05:42:07.458Z,23.10
2019-04-03T05:44:14.324Z,22.96
2019-04-03T05:46:21.183Z,22.33
2019-04-03T05:48:27.931Z,22.16
2019-04-03T05:50:36.681Z,23.05
2019-04-03T05:52:43.622Z,22.72
2019-04-03T05:54:50.414Z,21.48
2019-04-03T05:56:57.178Z,22.38
2019-04-03T05:59:03.965Z,22.01
2019-04-03T06:01:11.802Z,20.54
2019-04-03T06:03:18.993Z,20.20
2019-04-03T06:05:25.790Z,19.99
2019-04-03T06:07:33.563Z,20.57
2019-04-03T06:09:41.409Z,20.86
2019-04-03T06:11:48.216Z,20.49
2019-04-03T06:13:54.964Z,20.06
2019-04-03T06:16:01.751Z,20.50
2019-04-03T06:18:08.515Z,20.65
2019-04-03T06:20:15.360Z,20.46
2019-04-03T06:22:22.229Z,19.65
2019-04-03T06:24:29.086Z,18.32
2019-04-03T06:26:37.796Z,17.98
2019-04-03T06:28:46.398Z,17.18
2019-04-03T06:30:55.611Z,18.25
2019-04-03T06:33:02.154Z,18.79
2019-04-03T06:35:09.198Z,18.76
2019-04-03T06:37:17.613Z,17.99
2019-04-03T06:39:30.484Z,18.25
2019-04-03T06:41:33.941Z,17.52
2019-04-03T06:43:40.809Z,16.67
2019-04-03T06:45:47.997Z,17.17
2019-04-03T06:47:55.181Z,18.26
2019-04-03T06:50:02.244Z,16.72
2019-04-03T06:52:09.210Z,15.54
2019-04-03T06:54:15.994Z,15.68
2019-04-03T06:56:22.797Z,17.79
2019-04-03T06:58:38.038Z,18.49
2019-04-03T07:00:39.434Z,16.28
2019-04-03T07:02:46.328Z,16.98
2019-04-03T07:04:53.335Z,16.41
2019-04-03T07:07:00.143Z,16.63
2019-04-03T07:09:21.042Z,16.81
2019-04-03T07:11:23.166Z,17.12
2019-04-03T07:13:25.622Z,16.23
2019-04-03T07:15:32.480Z,16.97
2019-04-03T07:17:39.303Z,15.77
2019-04-03T07:19:46.284Z,14.48
2019-04-03T07:21:56.081Z,12.97
2019-04-03T07:24:17.667Z,12.74
2019-04-03T07:26:27.126Z,12.68
2019-04-03T07:28:34.102Z,12.76
2019-04-03T07:30:43.734Z,12.39
2019-04-03T07:32:50.502Z,15.10
2019-04-03T07:34:57.268Z,16.21
2019-04-03T07:37:04.188Z,16.42
2019-04-03T07:39:11.202Z,16.90
2019-04-03T07:41:18.088Z,16.90
2019-04-03T07:43:27.164Z,17.50
2019-04-03T07:45:33.603Z,18.27
2019-04-03T07:47:40.570Z,20.23
2019-04-03T07:49:47.504Z,22.01
2019-04-03T07:51:54.243Z,22.20
2019-04-03T07:54:04.240Z,22.64
2019-04-03T07:56:11.779Z,22.71
2019-04-03T07:58:18.688Z,23.04
2019-04-03T08:00:25.465Z,23.41
2019-04-03T08:02:33.666Z,23.65
2019-04-03T08:04:40.671Z,23.41
2019-04-03T08:06:47.448Z,23.58
2019-04-03T08:09:06.520Z,23.26
2019-04-03T08:11:03.051Z,23.01
2019-04-03T08:13:09.865Z,23.01
2019-04-03T08:15:17.007Z,23.25
2019-04-03T08:17:23.661Z,23.20
2019-04-03T08:19:30.432Z,23.41
2019-04-03T08:21:37.200Z,23.25
2019-04-03T08:23:43.955Z,23.20
2019-04-03T08:25:53.852Z,23.12
2019-04-03T08:28:00.142Z,23.14
2019-04-03T08:30:09.461Z,22.78
2019-04-03T08:32:17.435Z,22.82
2019-04-03T08:34:24.141Z,22.79
2019-04-03T08:36:30.882Z,22.83
2019-04-03T08:38:37.718Z,23.19
2019-04-03T08:40:44.783Z,22.82
2019-04-03T08:42:51.529Z,22.91
2019-04-03T08:44:58.331Z,22.68
2019-04-03T08:47:05.023Z,22.99
2019-04-03T08:49:11.895Z,22.81
2019-04-03T08:51:18.766Z,22.84
2019-04-03T08:53:25.535Z,22.58
2019-04-03T08:55:32.302Z,22.41
2019-04-03T08:57:39.266Z,22.28
2019-04-03T08:59:46.132Z,22.48
2019-04-03T09:01:55.113Z,22.66
2019-04-03T09:04:01.352Z,22.29
2019-04-03T09:06:07.995Z,22.47
2019-04-03T09:08:14.767Z,21.78
2019-04-03T09:10:21.526Z,21.84
2019-04-03T09:12:28.380Z,22.03
2019-04-03T09:14:35.122Z,22.09
2019-04-03T09:16:43.456Z,21.87
2019-04-03T09:18:50.202Z,22.08
2019-04-03T09:20:56.984Z,22.23
2019-04-03T09:23:03.691Z,22.24
2019-04-03T09:25:13.249Z,22.22
2019-04-03T09:27:19.300Z,21.63
2019-04-03T09:29:26.335Z,21.67
2019-04-03T09:31:33.228Z,21.71
2019-04-03T09:33:42.733Z,21.38
2019-04-03T09:35:49.507Z,21.61
2019-04-03T09:37:56.267Z,21.64
2019-04-03T09:40:03.005Z,21.52
2019-04-03T09:42:09.747Z,21.46
2019-04-03T09:44:16.418Z,21.47
2019-04-03T09:46:23.215Z,21.55
2019-04-03T09:48:30.372Z,21.65
2019-04-03T09:50:37.033Z,21.81
2019-04-03T09:52:49.099Z,21.71
2019-04-03T09:54:52.289Z,21.82
2019-04-03T09:57:04.451Z,21.54
2019-04-03T09:59:08.042Z,21.67
2019-04-03T10:01:17.994Z,22.16
2019-04-03T10:03:23.954Z,22.03
2019-04-03T10:05:32.715Z,22.35
2019-04-03T10:07:39.238Z,22.21
2019-04-03T10:09:46.165Z,22.09
2019-04-03T10:11:52.883Z,22.11
2019-04-03T10:13:59.642Z,22.19
2019-04-03T10:16:06.402Z,21.98
2019-04-03T10:18:13.124Z,22.08
2019-04-03T10:20:19.979Z,21.71
2019-04-03T10:22:26.745Z,21.96
2019-04-03T10:24:33.401Z,21.98
2019-04-03T10:26:40.930Z,21.80
2019-04-03T10:28:48.354Z,21.84
2019-04-03T10:30:55.329Z,21.56
2019-04-03T10:33:02.043Z,21.80
2019-04-03T10:35:09.450Z,21.57
2019-04-03T10:37:16.128Z,21.90
2019-04-03T10:39:22.904Z,21.69
2019-04-03T10:41:29.745Z,21.79
2019-04-03T10:43:37.650Z,21.37
2019-04-03T10:45:44.557Z,21.41
2019-04-03T10:47:51.235Z,21.14
2019-04-03T10:49:57.925Z,21.10
2019-04-03T10:52:05.155Z,21.40
2019-04-03T10:54:11.870Z,21.34
2019-04-03T10:56:19.158Z,21.25
2019-04-03T10:58:26.207Z,21.34
2019-04-03T11:00:33.994Z,21.21
2019-04-03T11:02:40.864Z,20.83
2019-04-03T11:04:47.610Z,21.16
2019-04-03T11:06:54.641Z,21.35
2019-04-03T11:09:12.496Z,21.73
2019-04-03T11:11:23.506Z,21.59
2019-04-03T11:13:29.362Z,21.72
2019-04-03T11:15:36.128Z,21.75
2019-04-03T11:17:42.974Z,21.71
2019-04-03T11:19:49.644Z,21.86
2019-04-03T11:21:57.432Z,21.79
2019-04-03T11:24:04.400Z,21.68
2019-04-03T11:26:12.813Z,21.62
2019-04-03T11:28:19.706Z,21.08
2019-04-03T11:30:26.883Z,20.99
2019-04-03T11:32:34.033Z,20.56
2019-04-03T11:34:40.776Z,20.29
2019-04-03T11:36:47.560Z,20.56
2019-04-03T11:39:06.551Z,20.69
2019-04-03T11:41:13.122Z,20.73
2019-04-03T11:43:11.212Z,20.47
2019-04-03T11:45:18.761Z,20.46
2019-04-03T11:47:25.717Z,20.10
2019-04-03T11:49:32.483Z,20.21
2019-04-03T11:51:39.110Z,20.01
2019-04-03T11:53:46.014Z,20.23
2019-04-03T11:55:53.072Z,20.00
2019-04-03T11:57:59.861Z,20.28
2019-04-03T12:00:14.374Z,20.32
2019-04-03T12:02:22.077Z,20.14
2019-04-03T12:04:29.105Z,20.03
2019-04-03T12:06:36.383Z,19.64
2019-04-03T12:08:45.028Z,19.77
2019-04-03T12:10:51.854Z,19.63
2019-04-03T12:12:58.768Z,19.59
2019-04-03T12:15:09.197Z,19.46
2019-04-03T12:17:15.976Z,19.56
2019-04-03T12:19:22.749Z,19.93
2019-04-03T12:21:29.518Z,19.32
2019-04-03T12:23:38.737Z,19.53
2019-04-03T12:25:44.800Z,19.39
2019-04-03T12:27:51.588Z,19.17
2019-04-03T12:29:58.481Z,19.07
2019-04-03T12:32:07.797Z,19.15
2019-04-03T12:34:14.076Z,19.35
2019-04-03T12:36:21.405Z,19.36
2019-04-03T12:38:28.396Z,19.08
2019-04-03T12:40:35.095Z,19.33
2019-04-03T12:42:42.206Z,19.16
2019-04-03T12:44:49.071Z,19.35
2019-04-03T12:46:55.843Z,19.44
2019-04-03T12:49:02.601Z,19.49
2019-04-03T12:51:09.372Z,19.33
2019-04-03T12:53:17.235Z,19.12
2019-04-03T12:55:25.935Z,19.09
2019-04-03T12:57:33.783Z,19.10
2019-04-03T12:59:40.868Z,19.28
2019-04-03T13:01:49.742Z,19.41
2019-04-03T13:03:57.329Z,19.28
2019-04-03T13:06:04.100Z,19.54
2019-04-03T13:08:10.994Z,19.44
2019-04-03T13:10:22.293Z,19.60
2019-04-03T13:12:29.118Z,19.60
2019-04-03T13:14:35.933Z,19.57
2019-04-03T13:16:46.591Z,19.75
2019-04-03T13:18:55.313Z,19.61
2019-04-03T13:21:02.192Z,19.53
2019-04-03T13:23:08.939Z,19.84
2019-04-03T13:25:16.099Z,19.87
2019-04-03T13:27:22.951Z,19.87
2019-04-03T13:29:29.760Z,20.03
2019-04-03T13:31:36.626Z,19.98
2019-04-03T13:33:43.647Z,19.58
2019-04-03T13:35:50.336Z,19.69
2019-04-03T13:37:57.234Z,19.77
2019-04-03T13:40:06.307Z,19.96
2019-04-03T13:42:14.651Z,19.74
2019-04-03T13:44:21.499Z,19.77
2019-04-03T13:46:28.271Z,19.49
2019-04-03T13:48:35.172Z,19.61
2019-04-03T13:50:41.957Z,19.50
2019-04-03T13:52:50.453Z,19.51
2019-04-03T13:54:58.287Z,19.58
2019-04-03T13:57:05.760Z,19.86
2019-04-03T13:59:12.421Z,19.92
2019-04-03T14:01:19.660Z,19.88
2019-04-03T14:03:27.824Z,19.82
2019-04-03T14:05:34.931Z,19.94
2019-04-03T14:07:42.557Z,19.92
2019-04-03T14:09:53.719Z,20.04
2019-04-03T14:12:00.531Z,19.90
2019-04-03T14:14:06.538Z,19.76
2019-04-03T14:16:19.877Z,20.05
2019-04-03T14:18:21.794Z,19.96
2019-04-03T14:20:29.888Z,19.89
2019-04-03T14:22:36.724Z,19.92
2019-04-03T14:24:47.475Z,19.85
2019-04-03T14:26:51.916Z,19.79
2019-04-03T14:28:59.004Z,19.87
2019-04-03T14:31:07.188Z,19.88
2019-04-03T14:33:14.024Z,19.87
2019-04-03T14:37:29.567Z,20.22
2019-04-03T14:39:37.174Z,19.72
2019-04-03T14:41:45.180Z,19.85
2019-04-03T14:43:52.088Z,19.77
2019-04-03T14:45:58.815Z,20.09
2019-04-03T14:48:06.027Z,20.17
2019-04-03T14:50:13.815Z,19.88
2019-04-03T14:52:20.781Z,20.03
2019-04-03T14:54:30.349Z,19.88
2019-04-03T14:56:40.098Z,20.05
2019-04-03T14:58:47.161Z,20.07
2019-04-03T15:00:54.305Z,20.15
2019-04-03T15:03:03.919Z,20.08
2019-04-03T15:05:09.715Z,20.08
2019-04-03T15:07:17.821Z,20.22
2019-04-03T15:09:26.975Z,20.26
2019-04-03T15:11:34.894Z,20.21
2019-04-03T15:13:42.100Z,20.50
2019-04-03T15:15:48.836Z,20.21
2019-04-03T15:17:55.602Z,20.50
2019-04-03T15:20:02.553Z,20.42
2019-04-03T15:22:09.349Z,20.71
2019-04-03T15:24:16.439Z,20.95
2019-04-03T15:26:23.918Z,20.81
2019-04-03T15:28:31.867Z,20.80
2019-04-03T15:30:43.400Z,20.92
2019-04-03T15:32:51.449Z,21.03
2019-04-03T15:35:00.268Z,21.23
2019-04-03T15:37:08.917Z,21.18
2019-04-03T15:39:17.168Z,21.19
2019-04-03T15:41:23.863Z,21.17
2019-04-03T15:43:33.833Z,20.99
2019-04-03T15:45:41.298Z,20.96
2019-04-03T15:47:48.459Z,21.09
2019-04-03T15:49:58.348Z,21.20
2019-04-03T15:52:03.799Z,21.41
2019-04-03T15:54:10.543Z,21.21
2019-04-03T15:56:18.315Z,21.31
2019-04-03T15:58:26.643Z,21.24
2019-04-03T16:00:35.763Z,21.35
2019-04-03T16:02:45.122Z,21.44
2019-04-03T16:04:50.552Z,21.40
2019-04-03T16:06:57.673Z,21.69
2019-04-03T16:09:07.979Z,21.83
2019-04-03T16:11:14.966Z,21.69
2019-04-03T16:13:24.662Z,21.73
2019-04-03T16:15:34.316Z,21.79
2019-04-03T16:17:42.295Z,21.71
2019-04-03T16:19:49.073Z,21.70
2019-04-03T16:21:57.667Z,21.98
2019-04-03T16:24:04.329Z,21.92
2019-04-03T16:26:11.155Z,22.16
2019-04-03T16:28:17.927Z,22.30
2019-04-03T16:30:25.254Z,22.07
2019-04-03T16:32:32.132Z,21.77
2019-04-03T16:34:41.105Z,21.89
2019-04-03T16:36:48.745Z,22.10
2019-04-03T16:38:56.137Z,22.05
2019-04-03T16:41:03.531Z,21.90
2019-04-03T16:43:10.386Z,22.08
2019-04-03T16:45:17.144Z,22.02
2019-04-03T16:47:25.460Z,22.02
2019-04-03T16:49:32.567Z,22.15
2019-04-03T16:51:39.352Z,22.05
2019-04-03T16:53:46.184Z,22.00
2019-04-03T16:55:53.083Z,22.00
2019-04-03T16:57:59.857Z,22.07
2019-04-03T17:00:10.415Z,22.17
2019-04-03T17:02:18.930Z,22.38
2019-04-03T17:04:46.848Z,22.51
2019-04-03T17:06:53.778Z,22.65
2019-04-03T17:09:00.523Z,22.64
2019-04-03T17:11:11.293Z,22.73
2019-04-03T17:13:18.857Z,23.00
2019-04-03T17:15:26.836Z,22.83
2019-04-03T17:17:33.886Z,22.98
2019-04-03T17:19:41.007Z,22.98
2019-04-03T17:21:48.148Z,22.91
2019-04-03T17:23:54.997Z,22.96
2019-04-03T17:26:01.755Z,22.97
2019-04-03T17:28:10.190Z,23.07
2019-04-03T17:30:18.347Z,23.11
2019-04-03T17:32:29.934Z,23.14
2019-04-03T17:34:39.797Z,23.22
2019-04-03T17:36:45.773Z,23.41
2019-04-03T17:38:52.844Z,23.27
2019-04-03T17:40:59.745Z,23.23
2019-04-03T17:43:06.471Z,23.55
2019-04-03T17:45:16.335Z,23.68
2019-04-03T17:47:21.427Z,23.62
2019-04-03T17:49:28.487Z,23.77
2019-04-03T17:51:38.965Z,23.66
2019-04-03T17:53:45.725Z,23.84
2019-04-03T17:55:52.563Z,23.92
2019-04-03T17:58:00.404Z,24.06
2019-04-03T18:00:20.631Z,24.08
2019-04-03T18:02:26.159Z,23.99
2019-04-03T18:04:33.883Z,24.24
2019-04-03T18:06:40.649Z,24.25
2019-04-03T18:08:47.414Z,24.32
2019-04-03T18:10:54.854Z,24.58
2019-04-03T18:13:01.630Z,24.42
2019-04-03T18:15:13.657Z,24.65
2019-04-03T18:17:20.388Z,24.48
2019-04-03T18:19:36.906Z,24.55
2019-04-03T18:21:35.658Z,24.69
2019-04-03T18:23:42.420Z,24.76
2019-04-03T18:25:50.547Z,24.70
2019-04-03T18:27:57.289Z,24.82
2019-04-03T18:30:11.790Z,24.75
2019-04-03T18:32:18.895Z,24.99
2019-04-03T18:34:25.662Z,24.89
2019-04-03T18:36:33.015Z,24.96
2019-04-03T18:38:40.904Z,24.84
2019-04-03T18:40:47.668Z,24.81
2019-04-03T18:42:54.337Z,24.73
2019-04-03T18:45:01.086Z,24.62
2019-04-03T18:47:07.866Z,24.67
2019-04-03T18:49:16.155Z,24.77
2019-04-03T18:51:24.383Z,24.80
2019-04-03T18:53:31.401Z,24.95
2019-04-03T18:55:39.144Z,24.79
2019-04-03T18:57:49.560Z,24.81
2019-04-03T18:59:56.479Z,24.99
2019-04-03T19:02:04.373Z,25.01
2019-04-03T19:04:11.141Z,24.89
2019-04-03T19:06:18.013Z,24.91
2019-04-03T19:08:24.868Z,25.11
2019-04-03T19:10:31.660Z,25.06
2019-04-03T19:12:38.612Z,25.12
2019-04-03T19:14:46.767Z,25.26
2019-04-03T19:16:54.991Z,25.13
2019-04-03T19:19:08.304Z,25.37
2019-04-03T19:21:24.627Z,25.07
2019-04-03T19:23:25.080Z,25.14
2019-04-03T19:25:31.840Z,25.31
2019-04-03T19:27:41.452Z,25.11
2019-04-03T19:29:49.500Z,24.91
2019-04-03T19:31:56.256Z,24.98
2019-04-03T19:34:03.288Z,25.03
2019-04-03T19:36:14.428Z,25.00
2019-04-03T19:38:21.147Z,24.88
2019-04-03T19:40:29.214Z,25.12
2019-04-03T19:42:36.087Z,25.02
2019-04-03T19:44:44.882Z,25.00
2019-04-03T19:46:51.965Z,25.07
2019-04-03T19:49:00.210Z,25.21
2019-04-03T19:51:07.149Z,25.27
2019-04-03T19:53:14.129Z,25.25
2019-04-03T19:55:23.345Z,25.21
2019-04-03T19:57:29.809Z,25.34
2019-04-03T19:59:36.762Z,25.38
2019-04-03T20:01:44.776Z,25.58
2019-04-03T20:03:52.159Z,25.54
2019-04-03T20:06:01.662Z,25.51
2019-04-03T20:08:10.343Z,25.58
2019-04-03T20:10:17.937Z,25.76
2019-04-03T20:12:24.908Z,25.87
2019-04-03T20:14:33.606Z,25.57
2019-04-03T20:16:39.909Z,25.68
2019-04-03T20:18:48.293Z,25.68
2019-04-03T20:20:55.064Z,25.97
2019-04-03T20:23:01.859Z,25.66
2019-04-03T20:25:09.491Z,25.77
2019-04-03T20:27:17.447Z,25.91
2019-04-03T20:29:24.218Z,26.01
2019-04-03T20:31:35.468Z,25.75
2019-04-03T20:33:42.346Z,25.70
2019-04-03T20:35:50.297Z,25.56
2019-04-03T20:38:04.194Z,25.72
2019-04-03T20:40:10.420Z,25.67
2019-04-03T20:42:18.283Z,26.01
2019-04-03T20:44:33.283Z,26.17
2019-04-03T20:46:43.353Z,26.14
2019-04-03T20:48:50.999Z,26.14
2019-04-03T20:50:58.221Z,26.28
2019-04-03T20:53:07.227Z,26.22
2019-04-03T20:55:15.047Z,26.45
2019-04-03T20:57:22.248Z,26.46
2019-04-03T20:59:30.377Z,26.52
2019-04-03T21:01:40.064Z,26.56
2019-04-03T21:03:48.222Z,26.63
2019-04-03T21:05:55.097Z,26.55
2019-04-03T21:08:01.845Z,26.74
2019-04-03T21:10:09.923Z,26.73
2019-04-03T21:12:16.777Z,26.62
2019-04-03T21:14:24.334Z,26.66
2019-04-03T21:16:33.419Z,26.73
2019-04-03T21:18:39.526Z,26.86
2019-04-03T21:20:46.257Z,26.96
2019-04-03T21:22:52.992Z,26.99
2019-04-03T21:24:59.748Z,27.05
2019-04-03T21:27:06.878Z,27.10
2019-04-03T21:29:16.870Z,27.08
2019-04-03T21:31:23.974Z,27.19
2019-04-03T21:33:31.757Z,27.20
2019-04-03T21:35:38.500Z,27.25
2019-04-03T21:37:45.273Z,27.32
2019-04-03T21:39:52.016Z,27.28
2019-04-03T21:41:58.756Z,27.52
2019-04-03T21:44:05.550Z,27.39
2019-04-03T21:46:12.299Z,27.62
2019-04-03T21:48:20.305Z,27.78
2019-04-03T21:50:27.011Z,27.71
2019-04-03T21:52:33.752Z,27.93
2019-04-03T21:54:40.444Z,27.98
2019-04-03T21:56:47.153Z,28.01
2019-04-03T21:58:53.916Z,28.03
2019-04-03T22:01:08.292Z,28.15
2019-04-03T22:03:15.060Z,28.25
2019-04-03T22:05:22.995Z,28.31
2019-04-03T22:07:30.233Z,28.41
2019-04-03T22:09:37.029Z,28.58
2019-04-03T22:11:43.768Z,28.44
2019-04-03T22:13:50.558Z,28.43
2019-04-03T22:15:57.338Z,28.50
2019-04-03T22:18:04.080Z,28.55
2019-04-03T22:20:10.936Z,28.69
2019-04-03T22:22:17.615Z,28.69
2019-04-03T22:24:24.363Z,28.83
2019-04-03T22:26:31.092Z,28.96
2019-04-03T22:28:39.263Z,29.09
2019-04-03T22:30:45.937Z,29.04
2019-04-03T22:32:53.958Z,29.07
2019-04-03T22:35:01.621Z,29.30
2019-04-03T22:37:08.389Z,29.34
2019-04-03T22:39:15.050Z,29.36
2019-04-03T22:41:21.822Z,29.39
2019-04-03T22:43:28.560Z,29.48
2019-04-03T22:45:35.307Z,29.66
2019-04-03T22:47:42.004Z,29.73
2019-04-03T22:49:48.783Z,29.56
2019-04-03T22:51:55.528Z,29.63
2019-04-03T22:54:02.231Z,29.68
2019-04-03T22:56:08.985Z,29.80
2019-04-03T22:58:15.742Z,29.71
2019-04-03T23:00:23.882Z,29.74
2019-04-03T23:02:31.816Z,29.82
2019-04-03T23:04:41.886Z,29.76
2019-04-03T23:06:49.389Z,30.00
2019-04-03T23:08:56.068Z,30.01
2019-04-03T23:11:03.338Z,29.96
2019-04-03T23:13:10.186Z,30.17
2019-04-03T23:15:16.949Z,30.07
2019-04-03T23:17:24.346Z,30.29
2019-04-03T23:19:32.488Z,30.33
2019-04-03T23:21:39.437Z,30.25
2019-04-03T23:23:48.239Z,30.30
2019-04-03T23:25:55.149Z,30.47
2019-04-03T23:28:03.042Z,30.35
2019-04-03T23:30:10.960Z,30.51
2019-04-03T23:32:17.836Z,30.55
2019-04-03T23:34:24.830Z,30.74
2019-04-03T23:36:31.573Z,30.70
2019-04-03T23:38:38.336Z,30.74
2019-04-03T23:40:45.103Z,30.76
2019-04-03T23:42:51.845Z,30.83
2019-04-03T23:44:58.721Z,30.80
2019-04-03T23:47:07.072Z,30.75
2019-04-03T23:49:14.163Z,30.87
2019-04-03T23:51:23.345Z,30.94
2019-04-03T23:53:32.123Z,30.89
2019-04-03T23:55:38.573Z,30.81
2019-04-03T23:57:45.350Z,30.89
2019-04-03T23:59:52.036Z,30.98
